Cades, SC (29518)

1:42 AM EST on December 25, 2014 (GMT -0500)
The Abbeys | Change Station
CLOSE
Current Station
Personal Weather Station
Location: Florence, SC
Elevation: 138 ft
Nearby Weather Stations

Elev 138 ft 34.15 °N, 79.78 °W | Updated 20 minutes ago

Overcast
Overcast
62.4 °F
Feels Like 62.4 °F
N
5.3
Wind Variable Wind from West

Today
High -- | Low -- °F
--% Chance of Precip.
Yesterday
High -- | Low -- °F
Precip. -- in
7:22 AM 5:16 PM
Waxing Crescent, 14% visible
Pressure 29.75 in
Visibility 10.0 miles
Clouds Mostly Cloudy 1300 ft
Mostly Cloudy 2500 ft
Overcast 10000 ft
Dew Point 62 °F
Humidity 99%
Rainfall 0.00 in
Snow Depth Not available.
UV 0 out of 12
Pollen .50 out of 12
Air Quality Not available.
Flu Activity Not available.
SPECI KFLO 250633Z AUTO 27009KT 10SM -RA BKN013 BKN025 OVC100 18/16 A2975 RMK AO2 RAB0555 CIG 009V022 P0001 T01780156 TSNO

More Conditions Fewer Conditions

Pressure 29.75 in
Visibility 10.0 miles
Clouds Mostly Cloudy 1300 ft
Mostly Cloudy 2500 ft
Overcast 10000 ft
Dew Point 62 °F
Humidity 99%
Rainfall 0.00 in
Snow Depth Not available.
UV 0 out of 12
Pollen .50 out of 12
Air Quality Not available.
Flu Activity Not available.
SPECI KFLO 250633Z AUTO 27009KT 10SM -RA BKN013 BKN025 OVC100 18/16 A2975 RMK AO2 RAB0555 CIG 009V022 P0001 T01780156 TSNO

More Conditions Fewer Conditions

10-Day Weather Forecast

Almanac

Astronomy

Dec. 25, 2014 Rise Set
Actual Time
Civil Twilight
Nautical Twilight
Astronomical Twilight
Moon
Length of Visible Light
Length of Day
Tomorrow will be .
, % of the Moon is Illuminated

Today's Extremes

State Highs State Lows

Community

WunderPhotos

Upload Photos

1,780,249 photos uploaded!

WunderBlogs® & News

Nearby

Air Quality

  Air Quality AQ Index Pollutant
Not available.

Snow Depth

Station Depth Elevation

Earthquake Activity

City Distance Mag. Time & Date
Minimum magnitude displayed is 2.5.

Coastal Water Temperatures

Place Temperature

Nearby Weather Stations